Time;durP1;ratioP1;P1;durP2;ratioP2;P2;SDS_P1;SDS_P2;PMS_P1;PMS_P2;Temp;Humidity;BMP_temperature;BMP_pressure;BME280_temperature;BME280_humidity;BME280_pressure;Samples;Min_cycle;Max_cycle;Signal;HPM_P1;HPM_P2
2023/06/04 00:01:22;;;;;;;2.22;1.90;;;13.10;99.90;;;;;;6189105;23;20028;-67
2023/06/04 00:03:47;;;;;;;6.95;2.10;;;13.10;99.90;;;;;;6186562;23;20059;-67
2023/06/04 00:06:13;;;;;;;5.10;1.75;;;13.00;99.90;;;;;;6188591;23;20013;-68
2023/06/04 00:08:39;;;;;;;2.55;1.63;;;13.00;99.90;;;;;;6187232;23;20466;-68
2023/06/04 00:11:05;;;;;;;3.35;1.50;;;13.00;99.90;;;;;;6188435;23;20047;-68
2023/06/04 00:13:30;;;;;;;4.40;1.92;;;12.90;99.90;;;;;;6188425;23;20048;-68
2023/06/04 00:15:56;;;;;;;4.05;1.73;;;12.90;99.90;;;;;;6197905;23;20023;-68
2023/06/04 00:18:22;;;;;;;5.13;1.80;;;12.90;99.90;;;;;;6205317;23;20017;-68
2023/06/04 00:20:47;;;;;;;3.20;1.80;;;12.90;99.90;;;;;;6198698;23;20021;-68
2023/06/04 00:23:13;;;;;;;3.35;2.35;;;12.80;99.90;;;;;;6201072;23;20021;-68
2023/06/04 00:25:39;;;;;;;3.13;1.73;;;12.80;99.90;;;;;;6192037;23;20036;-68
2023/06/04 00:28:05;;;;;;;3.35;1.58;;;12.70;99.90;;;;;;6190921;23;20013;-68
2023/06/04 00:30:31;;;;;;;4.68;2.15;;;12.80;99.90;;;;;;6188868;23;20017;-68
2023/06/04 00:32:56;;;;;;;5.90;2.13;;;12.70;99.90;;;;;;6187459;23;20252;-67
2023/06/04 00:35:22;;;;;;;3.05;1.98;;;12.70;99.90;;;;;;6188395;23;20021;-68
2023/06/04 00:37:48;;;;;;;7.05;2.22;;;12.60;99.90;;;;;;6186857;23;20070;-68
2023/06/04 00:40:14;;;;;;;5.18;2.50;;;12.70;99.90;;;;;;6188940;23;20029;-67
2023/06/04 00:42:40;;;;;;;3.17;2.40;;;12.70;99.90;;;;;;6186820;23;20029;-67
2023/06/04 00:45:07;;;;;;;5.78;2.30;;;12.60;99.90;;;;;;6188920;23;20068;-68
2023/06/04 00:47:33;;;;;;;4.47;2.47;;;12.50;99.90;;;;;;6187919;23;20013;-66
2023/06/04 00:49:59;;;;;;;4.15;2.15;;;12.50;99.90;;;;;;6187763;23;20025;-67
2023/06/04 00:52:26;;;;;;;5.90;2.10;;;12.40;99.90;;;;;;6189006;23;20070;-68
2023/06/04 00:54:52;;;;;;;6.35;2.50;;;12.40;99.90;;;;;;6186864;23;20402;-68
2023/06/04 00:57:17;;;;;;;7.95;2.50;;;12.40;99.90;;;;;;6188633;23;20029;-68
2023/06/04 00:59:43;;;;;;;7.63;3.30;;;12.40;99.90;;;;;;6186554;23;20084;-67
2023/06/04 01:02:13;;;;;;;9.75;2.67;;;12.30;99.90;;;;;;6188697;23;20031;-68
2023/06/04 01:05:00;;;;;;;4.25;2.38;;;12.30;99.90;;;;;;6187393;23;20020;-68
2023/06/04 01:07:30;;;;;;;5.18;2.70;;;12.30;99.90;;;;;;6187276;23;20033;-68
2023/06/04 01:09:56;;;;;;;5.88;2.97;;;12.30;99.90;;;;;;6188871;23;20068;-67
2023/06/04 01:12:23;;;;;;;6.28;2.38;;;12.30;99.90;;;;;;6160079;23;20021;-68
2023/06/04 01:14:48;;;;;;;5.15;3.13;;;12.20;99.90;;;;;;6188320;23;20096;-67
2023/06/04 01:17:19;;;;;;;13.98;5.05;;;12.20;99.90;;;;;;6186989;23;20021;-67
2023/06/04 01:19:59;;;;;;;8.90;2.58;;;12.20;99.90;;;;;;6187252;23;20538;-67
2023/06/04 01:22:49;;;;;;;8.20;2.92;;;12.20;99.90;;;;;;6188985;23;20025;-68
2023/06/04 01:25:25;;;;;;;7.72;2.80;;;12.20;99.90;;;;;;6186583;23;20018;-67
2023/06/04 01:27:55;;;;;;;5.50;3.17;;;12.20;99.90;;;;;;6188606;23;20025;-68
2023/06/04 01:30:27;;;;;;;5.28;2.70;;;12.10;99.90;;;;;;6187402;23;20045;-68
2023/06/04 01:32:56;;;;;;;6.68;2.63;;;12.10;99.90;;;;;;6186987;23;20021;-67
2023/06/04 01:35:22;;;;;;;6.97;2.90;;;12.10;99.90;;;;;;6188287;23;20021;-67
2023/06/04 01:37:48;;;;;;;7.80;3.13;;;12.10;99.90;;;;;;6186130;23;20065;-67
2023/06/04 01:40:15;;;;;;;15.18;4.15;;;12.00;99.90;;;;;;6188225;23;20084;-67
2023/06/04 01:42:44;;;;;;;6.28;2.88;;;12.00;99.90;;;;;;6186020;23;20027;-68
2023/06/04 01:45:10;;;;;;;5.70;2.58;;;12.00;99.90;;;;;;6187768;23;20040;-67
2023/06/04 01:47:36;;;;;;;6.75;2.80;;;12.00;99.90;;;;;;6187066;23;20407;-67
2023/06/04 01:50:09;;;;;;;7.63;2.88;;;12.00;99.90;;;;;;6187248;23;20020;-67
2023/06/04 01:52:40;;;;;;;8.45;3.00;;;11.90;99.90;;;;;;6188363;23;20013;-67
2023/06/04 01:55:08;;;;;;;5.30;2.50;;;11.90;99.90;;;;;;6186657;23;20045;-67
2023/06/04 01:57:38;;;;;;;6.15;2.65;;;11.90;99.90;;;;;;6188511;23;20052;-67
2023/06/04 02:00:09;;;;;;;6.95;2.40;;;11.90;99.90;;;;;;6170167;23;20020;-68
2023/06/04 02:02:42;;;;;;;4.07;2.97;;;11.80;99.90;;;;;;6199895;23;20014;-68
2023/06/04 02:05:09;;;;;;;5.90;2.88;;;11.80;99.90;;;;;;6192009;23;20052;-68
2023/06/04 02:07:38;;;;;;;10.77;2.85;;;11.80;99.90;;;;;;6186966;23;20478;-67
2023/06/04 02:10:11;;;;;;;6.65;3.00;;;11.70;99.90;;;;;;6190179;23;20032;-67
2023/06/04 02:12:39;;;;;;;5.68;2.75;;;11.70;99.90;;;;;;6187978;23;20604;-67
2023/06/04 02:15:05;;;;;;;7.85;3.70;;;11.60;99.90;;;;;;6189979;23;20079;-68
2023/06/04 02:17:37;;;;;;;6.53;2.70;;;11.50;99.90;;;;;;6188593;23;20311;-68
2023/06/04 02:20:09;;;;;;;6.53;3.30;;;11.60;99.90;;;;;;6188931;23;20028;-68
2023/06/04 02:22:35;;;;;;;5.82;2.58;;;11.60;99.90;;;;;;6189995;23;20013;-68
2023/06/04 02:25:00;;;;;;;6.18;2.88;;;11.60;99.90;;;;;;6187405;23;20459;-68
2023/06/04 02:27:26;;;;;;;7.35;3.50;;;11.50;99.90;;;;;;6189957;23;20009;-67
2023/06/04 02:29:52;;;;;;;4.38;2.92;;;11.50;99.90;;;;;;6187873;23;20025;-68
2023/06/04 02:32:18;;;;;;;5.47;3.05;;;11.50;99.90;;;;;;6189243;23;20017;-67
2023/06/04 02:34:44;;;;;;;11.20;3.08;;;11.40;99.90;;;;;;6188639;23;20021;-67
2023/06/04 02:37:10;;;;;;;7.40;2.67;;;11.40;99.90;;;;;;6188418;23;20021;-68
2023/06/04 02:39:35;;;;;;;6.70;2.85;;;11.40;99.90;;;;;;6189539;23;20025;-67
2023/06/04 02:42:01;;;;;;;6.55;3.08;;;11.30;99.90;;;;;;6187267;23;20134;-68
2023/06/04 02:44:29;;;;;;;7.43;3.08;;;11.20;99.90;;;;;;6189930;23;20040;-68
2023/06/04 02:46:55;;;;;;;8.48;3.47;;;11.20;99.90;;;;;;6187057;23;20021;-67
2023/06/04 02:49:21;;;;;;;7.40;4.47;;;11.30;99.90;;;;;;6189270;23;20025;-67
2023/06/04 02:51:47;;;;;;;7.60;3.88;;;11.30;99.90;;;;;;6188179;23;20025;-67
2023/06/04 02:54:12;;;;;;;9.25;3.42;;;11.10;99.90;;;;;;6188422;23;20043;-68
2023/06/04 02:56:39;;;;;;;7.40;3.83;;;11.10;99.90;;;;;;6189334;23;20028;-68
2023/06/04 02:59:05;;;;;;;6.40;3.53;;;11.10;99.90;;;;;;6187321;23;20447;-68
2023/06/04 03:01:31;;;;;;;12.05;4.15;;;11.10;99.90;;;;;;6189438;23;20013;-68
2023/06/04 03:03:57;;;;;;;6.57;3.97;;;11.00;99.90;;;;;;6187596;23;20025;-68
2023/06/04 03:06:26;;;;;;;7.03;3.65;;;11.00;99.90;;;;;;6189489;23;20045;-68
2023/06/04 03:08:52;;;;;;;6.03;4.07;;;10.90;99.90;;;;;;6188552;23;20017;-68
2023/06/04 03:11:20;;;;;;;8.68;4.35;;;10.90;99.90;;;;;;6189477;23;20533;-68
2023/06/04 03:13:46;;;;;;;9.35;4.28;;;11.00;99.90;;;;;;6199286;23;20009;-68
2023/06/04 03:16:12;;;;;;;12.30;4.95;;;10.90;99.90;;;;;;6202967;23;20105;-68
2023/06/04 03:18:40;;;;;;;7.65;3.90;;;11.00;99.90;;;;;;6201503;23;20013;-69
2023/06/04 03:21:06;;;;;;;8.73;3.63;;;11.00;99.90;;;;;;6198893;23;20017;-68
2023/06/04 03:23:32;;;;;;;9.27;4.82;;;10.90;99.90;;;;;;6193571;23;20036;-68
2023/06/04 03:25:58;;;;;;;7.75;3.97;;;10.90;99.90;;;;;;6189915;23;20498;-67
2023/06/04 03:28:24;;;;;;;8.10;3.75;;;10.90;99.90;;;;;;6162599;23;20435;-68
2023/06/04 03:30:50;;;;;;;3.97;3.25;;;10.90;99.90;;;;;;6189398;23;20021;-67
2023/06/04 03:33:15;;;;;;;9.15;3.78;;;10.90;99.90;;;;;;6187338;23;20466;-68
2023/06/04 03:35:41;;;;;;;8.13;3.50;;;10.90;99.90;;;;;;6189506;23;20080;-68
2023/06/04 03:38:07;;;;;;;9.15;3.85;;;10.90;99.90;;;;;;6187436;23;20048;-67
2023/06/04 03:40:33;;;;;;;12.90;5.45;;;10.90;99.90;;;;;;6188820;23;20028;-68
2023/06/04 03:43:00;;;;;;;7.32;3.80;;;10.90;99.90;;;;;;6187784;23;20064;-67
2023/06/04 03:45:26;;;;;;;9.00;4.22;;;10.80;99.90;;;;;;6188204;23;20021;-67
2023/06/04 03:47:52;;;;;;;9.32;3.45;;;10.80;99.90;;;;;;6188565;23;20450;-68
2023/06/04 03:50:21;;;;;;;7.25;4.70;;;10.80;99.90;;;;;;6187333;23;20064;-67
2023/06/04 03:52:50;;;;;;;7.72;3.70;;;10.90;99.90;;;;;;6189264;23;20020;-67
2023/06/04 03:55:16;;;;;;;8.38;5.13;;;10.90;99.90;;;;;;6186924;23;20036;-68
2023/06/04 03:57:42;;;;;;;9.93;3.35;;;10.90;99.90;;;;;;6188851;23;20017;-69
2023/06/04 04:00:12;;;;;;;9.15;3.78;;;11.00;99.90;;;;;;6186999;23;20025;-68
2023/06/04 04:02:42;;;;;;;11.57;4.82;;;11.10;99.90;;;;;;6187749;23;20077;-68
2023/06/04 04:05:09;;;;;;;7.32;3.80;;;11.10;99.90;;;;;;6188712;23;20043;-68
2023/06/04 04:07:35;;;;;;;10.15;4.18;;;11.20;99.90;;;;;;6186815;23;20017;-68
2023/06/04 04:10:01;;;;;;;8.48;4.65;;;11.20;99.90;;;;;;6189313;23;20115;-68
2023/06/04 04:12:27;;;;;;;10.27;4.50;;;11.40;99.90;;;;;;6186708;23;20567;-68
2023/06/04 04:14:53;;;;;;;12.85;4.00;;;11.40;99.90;;;;;;6188751;23;20244;-68
2023/06/04 04:17:18;;;;;;;12.80;4.80;;;11.40;99.90;;;;;;6187234;23;20068;-68
2023/06/04 04:19:44;;;;;;;7.70;4.68;;;11.50;99.90;;;;;;6188007;23;20538;-68
2023/06/04 04:22:11;;;;;;;7.50;4.53;;;11.60;99.90;;;;;;6188751;23;20021;-68
2023/06/04 04:24:37;;;;;;;7.07;3.72;;;11.60;99.90;;;;;;6186759;23;20020;-68
2023/06/04 04:27:04;;;;;;;9.77;4.95;;;11.70;99.90;;;;;;6189186;23;20071;-68
2023/06/04 04:29:34;;;;;;;8.38;3.75;;;11.70;99.90;;;;;;6186935;23;20017;-67
2023/06/04 04:32:01;;;;;;;9.10;4.28;;;11.80;99.90;;;;;;6188358;23;20021;-68
2023/06/04 04:34:27;;;;;;;10.00;4.68;;;11.90;99.90;;;;;;6187721;23;20024;-68
2023/06/04 04:36:53;;;;;;;8.43;4.10;;;11.90;99.90;;;;;;6188229;23;20013;-67
2023/06/04 04:39:28;;;;;;;9.40;4.28;;;11.90;99.90;;;;;;6188609;23;20084;-68
2023/06/04 04:41:55;;;;;;;8.93;4.28;;;12.00;99.90;;;;;;6186386;23;20040;-68
2023/06/04 04:44:21;;;;;;;10.80;4.70;;;12.20;99.90;;;;;;6189177;23;20072;-68
2023/06/04 04:46:48;;;;;;;10.60;4.90;;;12.20;99.90;;;;;;6186944;23;20017;-68
2023/06/04 04:49:14;;;;;;;9.27;5.07;;;12.30;99.90;;;;;;6188791;23;20052;-67
2023/06/04 04:51:40;;;;;;;7.47;3.92;;;12.40;99.90;;;;;;6187647;23;20021;-67
2023/06/04 04:54:06;;;;;;;8.23;4.35;;;12.60;99.90;;;;;;6187920;23;20032;-68
2023/06/04 04:56:36;;;;;;;10.02;4.82;;;12.60;99.90;;;;;;6188549;23;20017;-68
2023/06/04 04:59:02;;;;;;;11.93;3.85;;;12.70;99.90;;;;;;6186786;23;20020;-69
2023/06/04 05:01:30;;;;;;;9.23;4.40;;;12.80;99.90;;;;;;6189058;23;20498;-68
2023/06/04 05:03:56;;;;;;;7.65;4.38;;;12.90;99.90;;;;;;6186749;23;20017;-68
2023/06/04 05:06:22;;;;;;;8.18;4.35;;;13.00;99.90;;;;;;6188647;23;20329;-68
2023/06/04 05:08:50;;;;;;;11.73;4.38;;;13.10;99.90;;;;;;6187153;23;20385;-68
2023/06/04 05:11:16;;;;;;;19.83;5.20;;;13.20;99.90;;;;;;6187310;23;20454;-68
2023/06/04 05:13:42;;;;;;;8.32;3.97;;;13.20;99.90;;;;;;6188610;23;20025;-68
2023/06/04 05:16:08;;;;;;;9.07;4.82;;;13.40;99.90;;;;;;6186731;23;20025;-68
2023/06/04 05:18:34;;;;;;;8.93;5.00;;;13.50;99.90;;;;;;6162113;23;20025;-68
2023/06/04 05:21:02;;;;;;;11.32;4.72;;;13.60;99.90;;;;;;6186602;23;20025;-68
2023/06/04 05:23:30;;;;;;;10.50;5.22;;;13.70;99.90;;;;;;6188405;23;20025;-67
2023/06/04 05:25:55;;;;;;;9.43;4.40;;;13.80;99.90;;;;;;6186531;23;20048;-68
2023/06/04 05:28:24;;;;;;;7.93;4.10;;;13.80;99.90;;;;;;6187759;23;20028;-68
2023/06/04 05:30:58;;;;;;;10.65;5.68;;;14.00;99.90;;;;;;6188392;23;20130;-68
2023/06/04 05:33:25;;;;;;;8.13;3.70;;;14.00;99.90;;;;;;6186503;23;20021;-68
2023/06/04 05:35:59;;;;;;;10.27;4.43;;;14.00;99.90;;;;;;6188508;23;20104;-68
2023/06/04 05:38:25;;;;;;;6.85;3.53;;;14.10;99.90;;;;;;6186335;23;20848;-69
2023/06/04 05:40:55;;;;;;;11.00;4.60;;;14.20;99.90;;;;;;6187607;23;20032;-68
2023/06/04 05:43:21;;;;;;;11.32;3.85;;;14.30;99.90;;;;;;6189096;23;20486;-68
2023/06/04 05:45:47;;;;;;;9.35;4.15;;;14.50;99.90;;;;;;6188785;23;20021;-68
2023/06/04 05:48:13;;;;;;;7.88;3.97;;;14.50;99.90;;;;;;6190468;23;20044;-68
2023/06/04 05:50:39;;;;;;;5.85;3.42;;;14.70;99.90;;;;;;6188886;23;20024;-67
2023/06/04 05:53:05;;;;;;;7.20;3.72;;;14.70;99.90;;;;;;6190785;23;20028;-68
2023/06/04 05:55:31;;;;;;;6.63;3.50;;;14.70;99.90;;;;;;6187874;23;20059;-68
2023/06/04 05:57:56;;;;;;;10.13;3.47;;;14.70;99.90;;;;;;6190003;23;20076;-68
2023/06/04 06:00:23;;;;;;;9.65;3.30;;;14.80;99.90;;;;;;6199583;23;20047;-69
2023/06/04 06:02:53;;;;;;;7.00;3.40;;;14.80;99.90;;;;;;6201462;23;20071;-68
2023/06/04 06:05:19;;;;;;;6.88;3.20;;;14.80;99.90;;;;;;6202900;23;20049;-68
2023/06/04 06:07:46;;;;;;;11.20;4.65;;;14.80;99.90;;;;;;6193592;23;21158;-69
2023/06/04 06:10:12;;;;;;;9.10;3.50;;;14.80;99.90;;;;;;6190717;23;20013;-68
2023/06/04 06:12:38;;;;;;;8.80;3.30;;;14.90;99.90;;;;;;6189311;23;20036;-68
2023/06/04 06:15:04;;;;;;;8.80;3.45;;;14.90;99.90;;;;;;6207633;23;20016;-69
2023/06/04 06:17:30;;;;;;;8.05;4.05;;;14.90;99.90;;;;;;6201364;23;20032;-68
2023/06/04 06:19:56;;;;;;;10.98;3.90;;;14.80;99.90;;;;;;6201084;23;20017;-68
2023/06/04 06:22:22;;;;;;;9.95;3.15;;;14.90;99.90;;;;;;6200240;23;20017;-68
2023/06/04 06:24:48;;;;;;;6.68;3.25;;;15.00;99.90;;;;;;6190572;23;20032;-68
2023/06/04 06:27:15;;;;;;;9.38;4.20;;;15.10;99.90;;;;;;6191520;23;20009;-68
2023/06/04 06:29:42;;;;;;;6.13;3.45;;;15.10;99.90;;;;;;6188788;23;20021;-68
2023/06/04 06:32:08;;;;;;;11.95;3.20;;;15.20;99.90;;;;;;6138704;23;20021;-68
2023/06/04 06:34:34;;;;;;;9.52;3.58;;;15.20;99.90;;;;;;6188767;23;20047;-68
2023/06/04 06:37:00;;;;;;;8.95;3.30;;;15.30;99.90;;;;;;6187377;23;20021;-68
2023/06/04 06:39:25;;;;;;;6.15;3.42;;;15.40;99.90;;;;;;6188883;23;20021;-69
2023/06/04 06:41:54;;;;;;;8.13;3.47;;;15.40;99.90;;;;;;6186730;23;20060;-68
2023/06/04 06:44:20;;;;;;;5.35;3.55;;;15.50;99.90;;;;;;6189447;23;20021;-68
2023/06/04 06:46:48;;;;;;;6.13;3.97;;;15.50;99.90;;;;;;6160892;23;20714;-68
2023/06/04 06:49:15;;;;;;;5.60;3.60;;;15.70;99.90;;;;;;6163170;23;20013;-68
2023/06/04 06:51:40;;;;;;;5.57;3.58;;;15.70;99.90;;;;;;6188758;23;20494;-68
2023/06/04 06:54:09;;;;;;;5.68;3.75;;;15.60;99.90;;;;;;6188175;23;20041;-68
2023/06/04 06:56:34;;;;;;;8.07;3.45;;;15.70;99.90;;;;;;6189946;23;20017;-68
2023/06/04 06:59:00;;;;;;;6.88;3.72;;;15.80;99.90;;;;;;6187633;23;20029;-68
2023/06/04 07:01:26;;;;;;;4.03;2.50;;;15.80;99.90;;;;;;6189872;23;20020;-68
2023/06/04 07:03:52;;;;;;;8.95;2.50;;;15.80;99.90;;;;;;6160797;23;20021;-68
2023/06/04 07:06:18;;;;;;;10.02;3.33;;;15.60;99.90;;;;;;6189129;23;20029;-68
2023/06/04 07:08:44;;;;;;;8.48;3.05;;;15.80;99.90;;;;;;6188392;23;20067;-68
2023/06/04 07:11:11;;;;;;;4.50;2.78;;;15.90;99.90;;;;;;6162125;23;20017;-68
2023/06/04 07:13:38;;;;;;;4.20;2.45;;;16.00;99.90;;;;;;6162664;23;20025;-68
2023/06/04 07:16:06;;;;;;;7.20;2.47;;;16.10;99.90;;;;;;6187419;23;20446;-68
2023/06/04 07:18:35;;;;;;;7.07;2.17;;;16.20;99.90;;;;;;6188460;23;20023;-68
2023/06/04 07:21:01;;;;;;;6.18;2.50;;;16.40;99.90;;;;;;6185989;23;20029;-68
2023/06/04 07:23:27;;;;;;;5.68;2.67;;;16.40;99.90;;;;;;6189179;23;20064;-67
2023/06/04 07:25:53;;;;;;;4.03;2.15;;;16.40;99.90;;;;;;6187823;23;20017;-68
2023/06/04 07:28:21;;;;;;;3.70;2.20;;;16.40;99.90;;;;;;6188447;23;20061;-68
2023/06/04 07:30:47;;;;;;;4.50;2.20;;;16.50;99.90;;;;;;6189216;23;20017;-68
2023/06/04 07:33:12;;;;;;;3.80;1.88;;;16.50;99.90;;;;;;6187173;23;20088;-68
2023/06/04 07:35:38;;;;;;;6.43;2.30;;;16.60;99.90;;;;;;6189290;23;20099;-68
2023/06/04 07:38:04;;;;;;;6.03;2.20;;;16.60;99.90;;;;;;6187420;23;20048;-68
2023/06/04 07:40:29;;;;;;;5.53;1.83;;;16.70;99.90;;;;;;6189251;23;20070;-68
2023/06/04 07:42:55;;;;;;;4.88;2.15;;;16.80;99.90;;;;;;6187729;23;20072;-68
2023/06/04 07:45:21;;;;;;;5.72;1.58;;;16.80;99.90;;;;;;6188724;23;20025;-68
2023/06/04 07:47:47;;;;;;;6.15;1.60;;;16.90;99.90;;;;;;6188897;23;20021;-68
2023/06/04 07:50:13;;;;;;;5.03;1.58;;;16.90;99.90;;;;;;6187312;23;20017;-68
2023/06/04 07:52:38;;;;;;;4.53;2.00;;;17.00;99.90;;;;;;6189603;23;20020;-68
2023/06/04 07:55:05;;;;;;;5.57;1.80;;;17.10;99.90;;;;;;6160762;23;20048;-68
2023/06/04 07:57:31;;;;;;;5.25;1.98;;;17.10;99.90;;;;;;6189304;23;20021;-67
2023/06/04 07:59:57;;;;;;;3.97;1.40;;;17.10;99.90;;;;;;6187397;23;20044;-69
2023/06/04 08:02:23;;;;;;;5.25;1.30;;;17.20;99.90;;;;;;6188562;23;20024;-70
2023/06/04 08:04:49;;;;;;;6.38;1.70;;;17.20;99.90;;;;;;6188743;23;20061;-68
2023/06/04 08:07:15;;;;;;;4.38;1.75;;;17.30;99.90;;;;;;6187980;23;20071;-69
2023/06/04 08:09:41;;;;;;;8.85;1.88;;;17.30;99.90;;;;;;6189172;23;20013;-68
2023/06/04 08:12:07;;;;;;;4.97;1.67;;;17.30;99.90;;;;;;6186980;23;20020;-68
2023/06/04 08:14:33;;;;;;;4.57;1.73;;;17.40;99.90;;;;;;6189157;23;20021;-68
2023/06/04 08:16:58;;;;;;;4.65;1.58;;;17.50;99.90;;;;;;6187128;23;20021;-68
2023/06/04 08:19:24;;;;;;;3.60;1.52;;;17.50;99.90;;;;;;6187792;23;20039;-69
2023/06/04 08:21:50;;;;;;;2.55;1.25;;;17.70;99.90;;;;;;6187957;23;20095;-69
2023/06/04 08:24:16;;;;;;;6.28;1.63;;;17.70;99.90;;;;;;6187062;23;20017;-68
2023/06/04 08:26:42;;;;;;;3.78;1.40;;;17.80;99.90;;;;;;6188738;23;20537;-68
2023/06/04 08:29:10;;;;;;;5.68;1.40;;;17.80;99.90;;;;;;6186477;23;20027;-70
2023/06/04 08:31:36;;;;;;;7.75;1.27;;;17.80;99.90;;;;;;6188336;23;20077;-68
2023/06/04 08:34:05;;;;;;;3.58;1.30;;;17.90;99.90;;;;;;6186077;23;20017;-69
2023/06/04 08:36:32;;;;;;;3.95;1.27;;;17.90;99.90;;;;;;6187955;23;20021;-69
2023/06/04 08:38:58;;;;;;;3.50;1.50;;;18.10;99.90;;;;;;6187506;23;20043;-69
2023/06/04 08:41:38;;;;;;;3.67;1.67;;;18.10;99.90;;;;;;6160187;23;20029;-69
2023/06/04 08:44:06;;;;;;;3.78;1.30;;;18.20;99.90;;;;;;6188754;23;20025;-68
2023/06/04 08:46:42;;;;;;;3.30;1.33;;;18.20;99.90;;;;;;6186511;23;20017;-68
2023/06/04 08:49:09;;;;;;;6.47;1.30;;;18.30;99.90;;;;;;6187819;23;20024;-68
2023/06/04 08:51:37;;;;;;;6.32;1.63;;;18.40;99.90;;;;;;6187386;23;20077;-68
2023/06/04 08:54:07;;;;;;;5.93;1.40;;;18.40;99.90;;;;;;6187572;23;20378;-69
2023/06/04 08:56:34;;;;;;;3.25;1.90;;;18.40;99.90;;;;;;6188686;23;20021;-69
2023/06/04 08:59:07;;;;;;;3.90;1.55;;;18.50;99.90;;;;;;6187202;23;20021;-68
2023/06/04 09:01:33;;;;;;;;;;;18.50;99.90;;;;;;6189745;23;20017;-68
2023/06/04 09:04:05;;;;;;;5.25;1.98;;;18.40;99.90;;;;;;6160787;23;19920;-68
2023/06/04 09:06:33;;;;;;;3.38;1.42;;;18.50;99.90;;;;;;6164845;23;20024;-68
2023/06/04 09:09:03;;;;;;;5.28;1.40;;;18.70;99.90;;;;;;6188511;23;20068;-69
2023/06/04 09:11:40;;;;;;;2.85;1.55;;;18.70;99.90;;;;;;6187999;23;20071;-69
2023/06/04 09:14:08;;;;;;;4.78;1.10;;;18.70;99.90;;;;;;6174417;23;20051;-69
2023/06/04 09:16:47;;;;;;;2.55;1.30;;;18.90;99.90;;;;;;6196404;23;20063;-69
2023/06/04 09:19:13;;;;;;;2.55;1.00;;;18.70;99.90;;;;;;6196741;23;20024;-69
2023/06/04 09:21:51;;;;;;;2.17;1.35;;;18.70;99.90;;;;;;6193722;23;20009;-68
2023/06/04 09:24:18;;;;;;;3.30;1.15;;;18.80;99.90;;;;;;6161658;23;20013;-69
2023/06/04 09:26:44;;;;;;;2.13;1.05;;;18.90;99.90;;;;;;6189396;23;20076;-68
2023/06/04 09:29:10;;;;;;;3.47;1.27;;;19.00;99.90;;;;;;6186606;23;20111;-68
2023/06/04 09:31:39;;;;;;;2.97;1.35;;;19.10;99.90;;;;;;6187709;23;20034;-68
2023/06/04 09:34:06;;;;;;;4.30;1.45;;;19.20;99.90;;;;;;6186038;23;20025;-68
2023/06/04 09:36:35;;;;;;;3.42;1.58;;;19.10;99.90;;;;;;6187336;23;20021;-68
2023/06/04 09:39:05;;;;;;;2.17;1.13;;;19.30;99.90;;;;;;6187388;23;20068;-68
2023/06/04 09:41:31;;;;;;;2.17;1.05;;;19.20;99.90;;;;;;6186538;23;20025;-68
2023/06/04 09:44:03;;;;;;;3.70;1.25;;;19.20;99.90;;;;;;6188605;23;20021;-68
2023/06/04 09:46:30;;;;;;;4.78;1.48;;;19.30;99.90;;;;;;6186135;23;20044;-68
2023/06/04 09:49:03;;;;;;;6.50;1.38;;;19.30;99.90;;;;;;6188790;23;20104;-68
2023/06/04 09:51:30;;;;;;;1.55;1.27;;;19.40;99.90;;;;;;6160913;23;20429;-69
2023/06/04 09:54:03;;;;;;;3.25;1.27;;;19.40;99.90;;;;;;6161284;23;20023;-68
2023/06/04 09:56:29;;;;;;;3.65;1.25;;;19.40;99.90;;;;;;6162240;23;20021;-68
2023/06/04 09:59:02;;;;;;;2.10;1.10;;;19.30;99.90;;;;;;6190598;23;20052;-68
2023/06/04 10:01:29;;;;;;;3.67;1.35;;;19.40;99.90;;;;;;6195569;23;20024;-69
2023/06/04 10:04:02;;;;;;;2.55;1.27;;;19.40;99.90;;;;;;6190621;23;20017;-69
2023/06/04 10:06:30;;;;;;;;;;;19.50;99.90;;;;;;6188767;23;20048;-69
2023/06/04 10:08:58;;;;;;;2.35;1.17;;;19.70;99.40;;;;;;6187581;23;19951;-69
2023/06/04 10:11:33;;;;;;;3.08;1.02;;;19.60;99.70;;;;;;6186697;23;20036;-69
2023/06/04 10:14:02;;;;;;;;;;;19.60;98.70;;;;;;6162758;23;20048;-68
2023/06/04 10:16:30;;;;;;;2.75;1.10;;;19.60;97.70;;;;;;6186095;23;19920;-69
2023/06/04 10:18:57;;;;;;;1.27;1.13;;;19.60;98.50;;;;;;6193289;23;20051;-69
2023/06/04 10:21:23;;;;;;;6.63;2.08;;;19.70;98.00;;;;;;6188903;23;20025;-69
2023/06/04 10:23:50;;;;;;;4.82;1.10;;;19.60;97.20;;;;;;6160678;23;20021;-69
2023/06/04 10:26:16;;;;;;;2.58;1.17;;;19.70;98.20;;;;;;6187402;23;20033;-68
2023/06/04 10:28:43;;;;;;;2.42;1.35;;;19.70;97.90;;;;;;6186473;23;20017;-68
2023/06/04 10:31:10;;;;;;;2.47;1.30;;;19.60;98.80;;;;;;6162948;23;20384;-74
2023/06/04 10:33:36;;;;;;;3.67;1.27;;;19.70;98.70;;;;;;6187858;23;20147;-69
2023/06/04 10:36:17;;;;;;;2.38;1.15;;;19.80;98.60;;;;;;6189728;23;20021;-69
2023/06/04 10:38:54;;;;;;;6.90;1.20;;;19.80;98.40;;;;;;6188778;23;20013;-68
2023/06/04 10:41:23;;;;;;;2.60;1.23;;;19.80;98.10;;;;;;6161894;23;20016;-69
2023/06/04 10:43:51;;;;;;;4.30;1.30;;;19.80;97.60;;;;;;6189380;23;20061;-69
2023/06/04 10:46:19;;;;;;;5.15;1.17;;;19.80;98.00;;;;;;6187704;23;20036;-69
2023/06/04 10:48:54;;;;;;;1.85;1.20;;;19.80;97.30;;;;;;6189771;23;20020;-69
2023/06/04 10:51:30;;;;;;;4.82;1.20;;;19.80;97.60;;;;;;6188215;23;20486;-68
2023/06/04 10:53:58;;;;;;;2.42;1.55;;;19.90;97.10;;;;;;6188154;23;20529;-69
2023/06/04 10:56:34;;;;;;;2.42;1.00;;;20.00;97.50;;;;;;6162968;23;20123;-69
2023/06/04 10:59:01;;;;;;;1.67;1.00;;;20.10;97.40;;;;;;6187474;23;20017;-69
2023/06/04 11:01:31;;;;;;;1.95;0.98;;;20.10;97.30;;;;;;6189593;23;20025;-69
2023/06/04 11:04:00;;;;;;;4.82;1.02;;;20.10;97.20;;;;;;6161409;23;20029;-69
2023/06/04 11:06:27;;;;;;;4.47;1.27;;;20.20;97.30;;;;;;6189309;23;20025;-74
2023/06/04 11:09:04;;;;;;;5.05;1.20;;;20.20;97.60;;;;;;6162143;23;20079;-69
2023/06/04 11:11:30;;;;;;;3.28;1.52;;;20.30;98.10;;;;;;6187983;23;20013;-69
2023/06/04 11:13:55;;;;;;;3.53;1.40;;;20.30;97.90;;;;;;6163075;23;20031;-70
2023/06/04 11:16:21;;;;;;;2.03;1.40;;;20.30;97.80;;;;;;6161133;23;20040;-70
2023/06/04 11:18:58;;;;;;;2.38;1.45;;;20.40;97.10;;;;;;6162907;23;20056;-69
2023/06/04 11:21:27;;;;;;;2.15;1.05;;;20.30;96.40;;;;;;6161727;23;20025;-69
2023/06/04 11:24:00;;;;;;;1.67;1.30;;;20.40;96.50;;;;;;6189115;23;20362;-69
2023/06/04 11:26:37;;;;;;;3.72;1.40;;;20.40;97.00;;;;;;6189526;23;20017;-69
2023/06/04 11:29:07;;;;;;;3.88;1.05;;;20.40;96.40;;;;;;6161155;23;20431;-68
2023/06/04 11:31:45;;;;;;;2.13;1.10;;;20.40;97.20;;;;;;6163834;23;20021;-69
2023/06/04 11:34:27;;;;;;;3.08;1.58;;;20.40;97.10;;;;;;6189204;23;20021;-68
2023/06/04 11:36:54;;;;;;;4.72;1.25;;;20.20;97.00;;;;;;6189204;23;20029;-68
2023/06/04 11:39:21;;;;;;;2.60;1.35;;;20.40;97.00;;;;;;6163154;23;20488;-68
2023/06/04 11:41:50;;;;;;;5.57;1.48;;;20.40;96.90;;;;;;6160133;23;20056;-69
2023/06/04 11:44:19;;;;;;;4.63;1.45;;;20.50;96.70;;;;;;6189479;23;20021;-69
2023/06/04 11:46:45;;;;;;;2.08;1.10;;;20.50;96.80;;;;;;6187489;23;20036;-68
2023/06/04 11:49:18;;;;;;;3.10;1.25;;;20.30;96.20;;;;;;6188962;23;20502;-69
2023/06/04 11:51:52;;;;;;;6.03;1.13;;;20.40;95.90;;;;;;6162047;23;20028;-69
2023/06/04 11:54:20;;;;;;;3.75;1.35;;;20.40;96.30;;;;;;6160556;23;20052;-69
2023/06/04 11:56:49;;;;;;;6.57;1.60;;;20.50;97.20;;;;;;6163360;23;20068;-69
2023/06/04 11:59:16;;;;;;;2.92;1.35;;;20.60;96.90;;;;;;6161260;23;20052;-68
2023/06/04 12:01:44;;;;;;;3.05;1.38;;;20.60;96.60;;;;;;6163878;23;20210;-69
2023/06/04 12:04:18;;;;;;;1.80;1.13;;;20.60;96.60;;;;;;6174390;23;20075;-71
2023/06/04 12:06:53;;;;;;;3.75;1.60;;;20.60;95.50;;;;;;6173074;23;20578;-68
2023/06/04 12:09:38;;;;;;;3.22;1.27;;;20.50;96.00;;;;;;6170446;23;20805;-67
2023/06/04 12:12:07;;;;;;;3.00;1.45;;;20.50;96.30;;;;;;6190107;23;20395;-68
2023/06/04 12:14:33;;;;;;;4.18;1.50;;;20.70;96.40;;;;;;6163814;23;20052;-69
2023/06/04 12:17:08;;;;;;;4.78;1.80;;;20.80;95.50;;;;;;6161316;23;20025;-68
2023/06/04 12:19:44;;;;;;;2.08;1.17;;;20.70;95.80;;;;;;6136940;23;20023;-69
2023/06/04 12:22:12;;;;;;;1.15;1.05;;;20.70;95.20;;;;;;6188822;23;20024;-68
2023/06/04 12:24:55;;;;;;;1.83;1.13;;;20.70;96.10;;;;;;6186592;23;20017;-68
2023/06/04 12:27:25;;;;;;;4.35;1.38;;;20.70;95.50;;;;;;6162141;23;20749;-68
2023/06/04 12:29:58;;;;;;;4.32;1.10;;;20.80;96.00;;;;;;6187361;23;20025;-68
2023/06/04 12:32:24;;;;;;;1.95;1.10;;;20.80;95.90;;;;;;6161480;23;20025;-69
2023/06/04 12:34:50;;;;;;;2.55;1.17;;;20.80;96.10;;;;;;6162174;23;20021;-68
2023/06/04 12:37:16;;;;;;;2.47;1.27;;;20.80;95.50;;;;;;6186884;23;20147;-68
2023/06/04 12:39:42;;;;;;;3.28;1.55;;;20.80;95.90;;;;;;6162251;23;20024;-69
2023/06/04 12:42:08;;;;;;;2.28;0.95;;;20.80;95.50;;;;;;6159505;23;20442;-68
2023/06/04 12:44:41;;;;;;;2.90;1.40;;;20.90;95.80;;;;;;6162152;23;20032;-69
2023/06/04 12:47:07;;;;;;;;;;;20.90;94.70;;;;;;6187717;23;20033;-68
2023/06/04 12:49:33;;;;;;;2.53;1.10;;;20.80;95.30;;;;;;6161152;23;19927;-68
2023/06/04 12:51:58;;;;;;;5.90;1.60;;;21.00;96.00;;;;;;6161200;23;20021;-67